Time;durP1;ratioP1;P1;durP2;ratioP2;P2;SDS_P1;SDS_P2;PMS_P1;PMS_P2;Temp;Humidity;BMP_temperature;BMP_pressure;BME280_temperature;BME280_humidity;BME280_pressure;Samples;Min_cycle;Max_cycle;Signal;HPM_P1;HPM_P2
2024/03/09 00:00:19;;;;;;;;;2.75;2.75;;;;;10.62;59.88;99302.00;5070505;27;46369;-59
2024/03/09 00:02:48;;;;;;;;;4.75;3.75;;;;;10.60;60.07;99295.97;5077174;27;45424;-59
2024/03/09 00:05:14;;;;;;;;;4.50;3.00;;;;;10.58;60.54;99299.59;5067125;27;45361;-58
2024/03/09 00:07:40;;;;;;;;;5.00;4.75;;;;;10.54;60.31;99291.06;5070129;28;45438;-59
2024/03/09 00:10:06;;;;;;;;;4.25;4.00;;;;;10.53;60.80;99296.38;5071614;28;45500;-59
2024/03/09 00:12:33;;;;;;;;;6.00;3.75;;;;;10.50;60.96;99294.75;5076263;28;45439;-59
2024/03/09 00:15:01;;;;;;;;;5.00;3.75;;;;;10.48;61.00;99291.34;5064299;28;45546;-58
2024/03/09 00:17:27;;;;;;;;;5.00;4.00;;;;;10.44;61.08;99281.97;5069169;27;45571;-60
2024/03/09 00:19:52;;;;;;;;;3.00;3.00;;;;;10.43;60.89;99288.97;5066338;28;45508;-59
2024/03/09 00:22:17;;;;;;;;;4.75;4.00;;;;;10.43;61.37;99294.22;5074148;28;46548;-60
2024/03/09 00:24:43;;;;;;;;;3.00;2.75;;;;;10.41;61.33;99288.22;5068801;28;45229;-59
2024/03/09 00:27:11;;;;;;;;;4.00;3.00;;;;;10.39;61.50;99294.44;5070392;28;47303;-59
2024/03/09 00:29:36;;;;;;;;;3.00;3.00;;;;;10.35;61.51;99279.81;5069895;27;46793;-58
2024/03/09 00:32:03;;;;;;;;;8.00;3.75;;;;;10.37;61.70;99285.81;5078936;28;45427;-58
2024/03/09 00:34:28;;;;;;;;;4.50;4.50;;;;;10.35;61.53;99283.28;5067075;28;45213;-58
2024/03/09 00:36:54;;;;;;;;;4.75;3.00;;;;;10.33;61.87;99282.50;5073226;28;45516;-58
2024/03/09 00:39:19;;;;;;;;;4.00;3.75;;;;;10.33;61.98;99277.28;5068528;27;45430;-57
2024/03/09 00:41:47;;;;;;;;;3.25;3.25;;;;;10.31;62.04;99276.50;5067955;28;69028;-58
2024/03/09 00:44:12;;;;;;;;;6.00;4.75;;;;;10.27;61.95;99269.72;5066055;28;45508;-59
2024/03/09 00:46:38;;;;;;;;;4.50;3.00;;;;;10.25;62.20;99263.69;5069103;28;45220;-59
2024/03/09 00:49:03;;;;;;;;;3.25;3.00;;;;;10.24;62.06;99267.25;5076620;27;47019;-59
2024/03/09 00:51:30;;;;;;;;;3.50;3.50;;;;;10.20;62.31;99263.94;5065807;28;45457;-58
2024/03/09 00:53:56;;;;;;;;;4.00;3.25;;;;;10.17;62.58;99252.78;5078697;28;45417;-59
2024/03/09 00:56:21;;;;;;;;;5.00;3.75;;;;;10.17;62.25;99250.19;5065688;28;45540;-60
2024/03/09 00:58:47;;;;;;;;;4.50;3.75;;;;;10.15;62.36;99244.19;5071698;27;70535;-59
2024/03/09 01:01:12;;;;;;;;;6.00;2.50;;;;;10.13;62.55;99238.16;5072543;27;45350;-59
2024/03/09 01:03:38;;;;;;;;;8.50;5.00;;;;;10.10;62.46;99233.09;5066945;27;68517;-59
2024/03/09 01:06:05;;;;;;;;;5.00;3.75;;;;;10.08;62.53;99228.78;5075361;27;45514;-60
2024/03/09 01:08:31;;;;;;;;;4.50;3.25;;;;;10.06;62.95;99221.94;5077352;27;47131;-59
2024/03/09 01:10:57;;;;;;;;;2.75;2.00;;;;;10.06;62.91;99214.94;5065106;27;45238;-59
2024/03/09 01:13:22;;;;;;;;;6.00;2.00;;;;;10.05;62.97;99207.19;5069445;28;45697;-59
2024/03/09 01:15:48;;;;;;;;;6.00;3.00;;;;;10.03;62.74;99209.88;5072990;27;47538;-59
2024/03/09 01:18:14;;;;;;;;;3.00;3.00;;;;;10.02;63.21;99212.56;5068877;27;45472;-59
2024/03/09 01:20:40;;;;;;;;;2.50;2.00;;;;;10.02;62.96;99208.19;5072017;27;45465;-59
2024/03/09 01:23:06;;;;;;;;;2.50;2.00;;;;;10.01;63.13;99214.31;5067955;27;45561;-59
2024/03/09 01:25:31;;;;;;;;;4.00;2.00;;;;;10.00;63.16;99214.41;5061465;27;45591;-59
2024/03/09 01:27:57;;;;;;;;;4.25;2.50;;;;;9.98;63.25;99214.47;5072348;27;71191;-59
2024/03/09 01:30:22;;;;;;;;;3.75;3.75;;;;;9.99;63.39;99212.72;5073671;27;73327;-59
2024/03/09 01:32:49;;;;;;;;;5.00;3.00;;;;;9.98;63.20;99208.41;5070074;28;65103;-60
2024/03/09 01:35:15;;;;;;;;;3.00;3.00;;;;;10.00;63.62;99203.94;5077346;27;45555;-59
2024/03/09 01:37:40;;;;;;;;;3.50;2.00;;;;;9.99;63.22;99205.72;5072854;27;47954;-58
2024/03/09 01:40:07;;;;;;;;;7.00;3.50;;;;;9.99;63.34;99202.28;5062601;28;45461;-58
2024/03/09 01:42:32;;;;;;;;;2.75;2.75;;;;;9.95;63.35;99193.72;5073349;27;45417;-59
2024/03/09 01:44:58;;;;;;;;;6.00;3.00;;;;;9.97;63.66;99197.13;5069353;27;45320;-59
2024/03/09 01:47:25;;;;;;;;;3.00;2.50;;;;;9.96;63.39;99184.13;5076748;27;45410;-59
2024/03/09 01:49:51;;;;;;;;;2.00;2.00;;;;;9.95;63.62;99178.06;5065606;27;45911;-59
2024/03/09 01:52:17;;;;;;;;;2.50;2.50;;;;;9.94;63.59;99176.34;5071760;27;45379;-59
2024/03/09 01:54:43;;;;;;;;;2.00;1.00;;;;;9.92;63.48;99183.44;5075314;28;45604;-57
2024/03/09 01:57:08;;;;;;;;;2.00;2.00;;;;;9.87;63.65;99173.19;5068214;27;45386;-57
2024/03/09 01:59:34;;;;;;;;;5.75;2.25;;;;;9.86;63.82;99173.25;5075796;27;56321;-56
2024/03/09 02:02:01;;;;;;;;;3.25;2.25;;;;;9.85;63.73;99166.34;5072976;28;45301;-58
2024/03/09 02:04:28;;;;;;;;;2.00;2.00;;;;;9.83;63.73;99166.44;5074542;27;46101;-58
2024/03/09 02:06:54;;;;;;;;;0.00;0.00;;;;;9.83;63.82;99161.22;5072724;28;47207;-60
2024/03/09 02:09:20;;;;;;;;;2.50;2.00;;;;;9.81;64.06;99163.06;5087337;27;45434;-60
2024/03/09 02:11:47;;;;;;;;;26.00;19.50;;;;;9.80;63.95;99158.75;5070112;27;45502;-60
2024/03/09 02:14:13;;;;;;;;;4.75;3.25;;;;;9.82;64.15;99158.66;5062863;28;45433;-59
2024/03/09 02:16:38;;;;;;;;;55.50;41.75;;;;;9.83;64.36;99157.75;5075986;27;46117;-59
2024/03/09 02:19:07;;;;;;;;;4.00;2.75;;;;;9.82;64.37;99150.81;5072447;27;45247;-59
2024/03/09 02:21:34;;;;;;;;;5.75;3.25;;;;;9.82;63.97;99143.00;5070895;27;45701;-59
2024/03/09 02:24:08;;;;;;;;;3.75;2.50;;;;;9.79;64.10;99132.69;5074575;27;45327;-59
2024/03/09 02:26:37;;;;;;;;;4.00;2.25;;;;;9.77;64.12;99132.75;5077332;27;45481;-59
2024/03/09 02:29:03;;;;;;;;;2.75;2.00;;;;;9.78;64.19;99134.47;5068318;27;45560;-59
2024/03/09 02:31:29;;;;;;;;;2.50;2.00;;;;;9.78;64.18;99131.84;5068240;28;45393;-59
2024/03/09 02:33:55;;;;;;;;;3.50;1.75;;;;;9.76;64.38;99127.63;5069169;27;45212;-60
2024/03/09 02:36:25;;;;;;;;;4.75;2.00;;;;;9.75;64.34;99123.31;5089350;27;46147;-59
2024/03/09 02:38:51;;;;;;;;;3.75;1.75;;;;;9.74;64.25;99125.09;5071197;27;45415;-60
2024/03/09 02:41:17;;;;;;;;;9.25;6.75;;;;;9.75;64.28;99118.09;5071321;28;45319;-59
2024/03/09 02:43:43;;;;;;;;;6.75;3.75;;;;;9.75;64.33;99107.66;5070360;27;45452;-60
2024/03/09 02:46:10;;;;;;;;;2.25;2.25;;;;;9.73;64.21;99105.09;5068964;27;46122;-59
2024/03/09 02:48:35;;;;;;;;;2.25;2.25;;;;;9.72;64.38;99099.94;5063466;27;45942;-59
2024/03/09 02:51:01;;;;;;;;;4.75;2.00;;;;;9.68;64.53;99097.50;5073160;28;68984;-59
2024/03/09 02:53:27;;;;;;;;;3.75;2.00;;;;;9.69;64.38;99095.75;5068044;28;45512;-59
2024/03/09 02:55:53;;;;;;;;;4.50;2.00;;;;;9.67;64.50;99095.81;5072560;27;45390;-59
2024/03/09 02:58:19;;;;;;;;;2.00;2.00;;;;;9.65;64.32;99095.03;5082038;27;45509;-59
2024/03/09 03:00:47;;;;;;;;;4.25;3.75;;;;;9.65;64.34;99094.19;5068918;28;45547;-59
2024/03/09 03:05:57;;;;;;;;;5.00;4.00;;;;;9.61;64.52;99087.44;5064439;28;45670;-59
2024/03/09 03:08:23;;;;;;;;;3.00;3.00;;;;;9.59;64.56;99086.66;5072903;27;71196;-58
2024/03/09 03:10:48;;;;;;;;;4.00;4.00;;;;;9.60;64.70;99080.53;5076254;28;45239;-58
2024/03/09 03:13:14;;;;;;;;;8.75;3.75;;;;;9.57;64.71;99084.13;5073838;27;73111;-58
2024/03/09 03:15:39;;;;;;;;;16.00;13.25;;;;;9.57;64.61;99083.28;5066269;28;45420;-59
2024/03/09 03:18:07;;;;;;;;;5.50;5.00;;;;;9.60;64.91;99090.97;5069238;27;45377;-57
2024/03/09 03:20:33;;;;;;;;;7.50;7.50;;;;;9.58;65.00;99083.22;5067644;27;45801;-59
2024/03/09 03:22:59;;;;;;;;;4.00;3.00;;;;;9.57;64.61;99091.97;5064664;28;45450;-59
2024/03/09 03:25:25;;;;;;;;;3.00;3.00;;;;;9.54;64.60;99081.66;5060884;28;46108;-59
2024/03/09 03:27:51;;;;;;;;;4.75;4.00;;;;;9.53;65.11;99081.75;5073124;27;45349;-59
2024/03/09 03:30:19;;;;;;;;;3.00;3.00;;;;;9.52;65.08;99080.06;5076062;27;45496;-59
2024/03/09 03:32:44;;;;;;;;;6.25;2.00;;;;;9.50;64.76;99077.50;5072711;28;45469;-59
2024/03/09 03:35:10;;;;;;;;;4.50;3.00;;;;;9.48;64.81;99068.91;5075408;28;47402;-60
2024/03/09 03:37:36;;;;;;;;;2.75;2.75;;;;;9.48;64.91;99067.13;5066773;27;45444;-59
2024/03/09 03:40:01;;;;;;;;;2.00;2.00;;;;;9.48;65.15;99061.09;5076957;27;45464;-59
2024/03/09 03:42:27;;;;;;;;;6.50;3.00;;;;;9.45;65.05;99056.84;5071122;27;51056;-58
2024/03/09 03:44:52;;;;;;;;;4.50;3.00;;;;;9.46;65.00;99052.47;5072091;27;45312;-59
2024/03/09 03:47:18;;;;;;;;;3.75;2.75;;;;;9.43;65.36;99048.25;5061210;27;70110;-58
2024/03/09 03:49:46;;;;;;;;;5.00;2.00;;;;;9.42;65.20;99049.19;5070330;28;45561;-59
2024/03/09 03:52:12;;;;;;;;;2.00;1.00;;;;;9.39;65.25;99038.03;5071336;28;45786;-60
2024/03/09 03:54:37;;;;;;;;;1.75;1.75;;;;;9.36;65.37;99033.81;5061259;28;46207;-58
2024/03/09 03:57:02;;;;;;;;;1.50;1.50;;;;;9.37;65.29;99030.28;5067720;27;45286;-59
2024/03/09 03:59:29;;;;;;;;;3.75;2.50;;;;;9.34;65.57;99025.22;5068616;27;45327;-59
2024/03/09 04:01:54;;;;;;;;;2.50;2.50;;;;;9.32;65.44;99025.28;5065773;28;45803;-57
2024/03/09 04:04:20;;;;;;;;;2.25;2.00;;;;;9.31;65.71;99018.38;5064603;27;48234;-59
2024/03/09 04:06:45;;;;;;;;;2.00;1.00;;;;;9.30;65.52;99021.91;5074220;28;69980;-58
2024/03/09 04:09:14;;;;;;;;;2.00;1.75;;;;;9.30;65.85;99016.69;5067674;27;45395;-59
2024/03/09 04:11:40;;;;;;;;;1.00;1.00;;;;;9.30;65.89;99019.28;5068892;28;45435;-59
2024/03/09 04:14:05;;;;;;;;;3.25;1.75;;;;;9.28;65.49;99012.47;5062551;28;45488;-58
2024/03/09 04:16:31;;;;;;;;;2.00;2.00;;;;;9.27;65.83;99019.44;5077928;27;45494;-59
2024/03/09 04:18:56;;;;;;;;;3.00;1.00;;;;;9.26;65.82;99020.38;5063090;27;46444;-59
2024/03/09 04:21:22;;;;;;;;;3.25;2.25;;;;;9.25;66.01;99023.88;5069604;27;71423;-58
2024/03/09 04:23:49;;;;;;;;;1.00;1.00;;;;;9.23;65.99;99017.91;5073694;27;46162;-59
2024/03/09 04:26:15;;;;;;;;;1.00;1.00;;;;;9.25;66.13;99021.28;5065434;27;45415;-58
2024/03/09 04:28:43;;;;;;;;;1.25;1.25;;;;;9.25;65.83;99018.69;5065013;27;45861;-60
2024/03/09 04:31:09;;;;;;;;;3.00;1.00;;;;;9.26;65.68;99024.72;5064210;28;45685;-58
2024/03/09 04:33:34;;;;;;;;;2.00;2.00;;;;;9.24;65.87;99013.53;5072657;28;46370;-57
2024/03/09 04:36:00;;;;;;;;;2.50;1.75;;;;;9.23;65.80;99023.13;5070287;27;45332;-59
2024/03/09 04:38:29;;;;;;;;;1.00;1.00;;;;;9.20;65.91;99014.59;5070929;27;45348;-59
2024/03/09 04:40:55;;;;;;;;;1.75;1.00;;;;;9.17;65.76;99017.34;5074616;27;45449;-59
2024/03/09 04:43:20;;;;;;;;;1.75;1.00;;;;;9.18;65.83;99021.66;5069338;28;74468;-59
2024/03/09 04:45:45;;;;;;;;;3.00;1.00;;;;;9.18;66.05;99019.06;5069727;27;69998;-59
2024/03/09 04:48:13;;;;;;;;;1.00;1.00;;;;;9.18;65.95;99017.28;5077879;27;46003;-59
2024/03/09 04:50:40;;;;;;;;;1.50;1.00;;;;;9.19;66.13;99015.50;5067923;27;45463;-58
2024/03/09 04:53:06;;;;;;;;;0.25;0.25;;;;;9.18;66.21;99013.84;5067047;28;45398;-58
2024/03/09 04:55:31;;;;;;;;;1.00;1.00;;;;;9.17;65.86;99012.13;5074089;27;45379;-59
2024/03/09 04:57:57;;;;;;;;;3.50;0.50;;;;;9.17;66.01;99014.75;5067410;27;69348;-58
2024/03/09 05:00:31;;;;;;;;;2.00;1.25;;;;;9.15;66.01;99016.59;5085019;27;45552;-58
2024/03/09 05:02:57;;;;;;;;;1.25;1.25;;;;;9.14;66.22;99010.53;5074715;27;46043;-58
2024/03/09 05:05:22;;;;;;;;;2.00;2.00;;;;;9.13;66.01;99008.84;5071263;27;69687;-58
2024/03/09 05:07:50;;;;;;;;;2.75;1.00;;;;;9.14;66.27;99007.94;5080372;27;45410;-58
2024/03/09 05:10:20;;;;;;;;;1.00;1.00;;;;;9.13;66.04;99009.66;5075438;27;45553;-58
2024/03/09 05:12:50;;;;;;;;;1.00;1.00;;;;;9.11;66.59;99008.91;5081077;27;46105;-58
2024/03/09 05:15:15;;;;;;;;;3.50;2.00;;;;;9.12;66.50;99004.56;5076761;27;45293;-57
2024/03/09 05:17:41;;;;;;;;;1.00;1.00;;;;;9.11;66.29;98998.47;5067731;27;45532;-58
2024/03/09 05:20:14;;;;;;;;;1.50;1.50;;;;;9.10;66.25;98990.72;5069928;27;68396;-58
2024/03/09 05:22:40;;;;;;;;;2.00;1.00;;;;;9.09;66.38;98987.25;5067031;28;46073;-59
2024/03/09 05:25:15;;;;;;;;;3.25;2.50;;;;;9.09;66.49;98973.38;5067937;27;45513;-58
2024/03/09 05:27:43;;;;;;;;;3.00;2.75;;;;;9.07;66.39;98964.78;5078312;27;45232;-58
2024/03/09 05:30:18;;;;;;;;;4.00;4.00;;;;;9.07;66.53;98964.78;5070527;27;45336;-58
2024/03/09 05:32:53;;;;;;;;;2.00;2.00;;;;;9.06;66.62;98968.31;5063777;27;47247;-59
2024/03/09 05:35:28;;;;;;;;;3.50;2.25;;;;;9.06;66.56;98958.69;5068147;27;45965;-59
2024/03/09 05:38:00;;;;;;;;;2.00;1.00;;;;;9.06;66.77;98953.47;5071907;27;45522;-57
2024/03/09 05:40:27;;;;;;;;;2.00;2.00;;;;;9.07;66.81;98946.53;5090588;27;47123;-59
2024/03/09 05:42:55;;;;;;;;;4.00;1.00;;;;;9.07;66.67;98938.69;5073062;27;45467;-58
2024/03/09 05:45:20;;;;;;;;;2.00;2.00;;;;;9.08;66.85;98949.06;5068166;27;45926;-59
2024/03/09 05:47:47;;;;;;;;;1.00;1.00;;;;;9.08;66.63;98949.06;5071118;27;45624;-58
2024/03/09 05:50:13;;;;;;;;;3.00;2.00;;;;;9.07;66.69;98939.53;5078508;27;45449;-57
2024/03/09 05:52:40;;;;;;;;;2.00;2.00;;;;;9.06;66.76;98943.03;5066838;28;45464;-59
2024/03/09 05:55:06;;;;;;;;;2.00;2.00;;;;;9.09;66.48;98955.94;5073031;27;45426;-58
2024/03/09 05:57:31;;;;;;;;;1.00;1.00;;;;;9.09;66.46;98960.34;5079111;27;45270;-59
2024/03/09 05:59:57;;;;;;;;;1.00;1.00;;;;;9.10;66.70;98957.66;5069749;28;72926;-58
2024/03/09 06:02:22;;;;;;;;;2.00;2.00;;;;;9.10;66.46;98960.25;5065178;27;75454;-59
2024/03/09 06:04:47;;;;;;;;;1.25;1.25;;;;;9.11;66.54;98961.09;5079133;27;45350;-59
2024/03/09 06:07:13;;;;;;;;;1.25;1.25;;;;;9.11;66.53;98961.09;5071324;27;68036;-60
2024/03/09 06:09:38;;;;;;;;;2.75;2.00;;;;;9.11;66.77;98961.94;5070577;27;72561;-60
2024/03/09 06:12:04;;;;;;;;;2.50;1.00;;;;;9.13;66.65;98951.41;5068133;27;46106;-59
2024/03/09 06:14:29;;;;;;;;;4.25;1.50;;;;;9.15;66.60;98951.34;5063180;27;45471;-59
2024/03/09 06:16:54;;;;;;;;;3.00;1.50;;;;;9.15;66.50;98948.75;5072513;27;68163;-59
2024/03/09 06:19:20;;;;;;;;;1.75;1.00;;;;;9.15;66.61;98940.91;5066952;27;45656;-59
2024/03/09 06:21:45;;;;;;;;;2.75;1.50;;;;;9.16;66.75;98940.00;5075363;27;72738;-59
2024/03/09 06:24:11;;;;;;;;;2.75;1.75;;;;;9.18;66.64;98948.59;5074804;27;72078;-59
2024/03/09 06:26:36;;;;;;;;;1.25;1.25;;;;;9.19;66.51;98943.31;5073351;27;45506;-59
2024/03/09 06:29:02;;;;;;;;;1.50;1.50;;;;;9.20;66.60;98938.91;5066593;27;45520;-58
2024/03/09 06:31:27;;;;;;;;;5.00;1.50;;;;;9.23;66.51;98942.22;5066653;28;45541;-59
2024/03/09 06:33:53;;;;;;;;;2.50;2.00;;;;;9.25;66.28;98937.75;5068445;27;45363;-59
2024/03/09 06:36:18;;;;;;;;;2.50;1.00;;;;;9.30;66.23;98948.81;5069847;27;69244;-59
2024/03/09 06:38:44;;;;;;;;;4.00;1.00;;;;;9.32;66.19;98938.31;5066207;27;45196;-60
2024/03/09 06:41:12;;;;;;;;;3.75;1.50;;;;;9.36;66.44;98945.03;5066611;28;46168;-58
2024/03/09 06:43:37;;;;;;;;;1.00;1.00;;;;;9.38;66.09;98940.59;5076036;27;45305;-59
2024/03/09 06:46:03;;;;;;;;;1.00;1.00;;;;;9.42;66.03;98943.88;5066830;27;69335;-59
2024/03/09 06:48:29;;;;;;;;;2.00;1.00;;;;;9.45;65.97;98939.34;5076693;27;45620;-58
2024/03/09 06:50:55;;;;;;;;;2.25;1.50;;;;;9.49;66.11;98938.28;5062113;27;46174;-60
2024/03/09 06:53:24;;;;;;;;;1.00;1.00;;;;;9.53;66.08;98945.97;5060500;28;45462;-57
2024/03/09 06:55:50;;;;;;;;;2.50;1.00;;;;;9.55;65.57;98946.72;5070259;27;45438;-59
2024/03/09 06:58:17;;;;;;;;;2.50;2.00;;;;;9.55;66.15;98936.28;5075611;27;45223;-58
2024/03/09 07:00:42;;;;;;;;;2.50;2.00;;;;;9.57;65.63;98937.03;5066649;27;46062;-58
2024/03/09 07:03:08;;;;;;;;;1.00;1.00;;;;;9.59;65.83;98938.63;5067404;27;45402;-59
2024/03/09 07:05:34;;;;;;;;;3.25;1.00;;;;;9.63;65.68;98937.56;5060404;27;66700;-58
2024/03/09 07:08:00;;;;;;;;;2.00;1.00;;;;;9.66;65.60;98940.00;5074818;27;45632;-57
2024/03/09 07:10:28;;;;;;;;;2.75;1.00;;;;;9.70;65.50;98940.69;5063930;28;45632;-59
2024/03/09 07:12:54;;;;;;;;;1.25;1.00;;;;;9.77;65.35;98942.06;5072534;27;45706;-59
2024/03/09 07:15:22;;;;;;;;;2.00;2.00;;;;;9.82;65.58;98937.44;5068560;27;45323;-59
2024/03/09 07:17:49;;;;;;;;;2.00;1.75;;;;;9.85;65.31;98931.22;5074227;27;45828;-59
2024/03/09 07:20:23;;;;;;;;;1.00;1.00;;;;;9.95;65.23;98935.03;5066738;28;45694;-58
2024/03/09 07:22:49;;;;;;;;;1.75;1.75;;;;;10.01;64.99;98931.25;5069943;27;45218;-60
2024/03/09 07:25:16;;;;;;;;;3.50;2.00;;;;;10.08;64.98;98930.81;5062143;28;45441;-59
2024/03/09 07:27:43;;;;;;;;;2.00;1.25;;;;;10.14;64.60;98931.41;5067254;27;46927;-59
2024/03/09 07:30:14;;;;;;;;;2.00;1.75;;;;;10.18;64.64;98932.94;5063711;27;46412;-59
2024/03/09 07:32:40;;;;;;;;;1.25;1.00;;;;;10.24;64.28;98940.47;5062318;28;45545;-59
2024/03/09 07:35:14;;;;;;;;;1.00;1.00;;;;;10.29;64.24;98930.59;5065726;27;45327;-57
2024/03/09 07:37:42;;;;;;;;;2.00;1.00;;;;;10.30;64.12;98934.88;5067158;28;45790;-59
2024/03/09 07:40:10;;;;;;;;;2.00;2.00;;;;;10.32;63.90;98930.44;5076392;27;45488;-60
2024/03/09 07:42:37;;;;;;;;;1.75;1.00;;;;;10.35;64.15;98925.03;5062011;28;45835;-60
2024/03/09 07:45:15;;;;;;;;;1.00;1.00;;;;;10.42;64.02;98926.38;5062041;28;45475;-60
2024/03/09 07:47:42;;;;;;;;;1.75;1.50;;;;;10.50;63.84;98914.66;5063865;27;45465;-58
2024/03/09 07:50:13;;;;;;;;;1.00;1.00;;;;;10.60;63.60;98926.28;5062155;28;45492;-63
2024/03/09 07:52:49;;;;;;;;;1.50;1.25;;;;;10.68;63.18;98920.63;5071828;27;45891;-59
2024/03/09 07:55:20;;;;;;;;;3.50;2.00;;;;;10.73;63.08;98916.84;5063653;28;45426;-62
2024/03/09 07:57:46;;;;;;;;;1.75;1.00;;;;;10.82;63.19;98912.84;5076305;28;45382;-60
2024/03/09 08:00:22;;;;;;;;;5.75;2.00;;;;;10.93;62.80;98918.31;5066102;28;45471;-60
2024/03/09 08:02:49;;;;;;;;;2.00;1.75;;;;;11.01;62.58;98912.63;5062360;27;47545;-60
2024/03/09 08:05:19;;;;;;;;;0.75;0.75;;;;;11.09;62.63;98910.41;5062207;28;45404;-63
2024/03/09 08:07:45;;;;;;;;;3.25;1.25;;;;;11.18;62.22;98911.66;5067806;27;45194;-59
2024/03/09 08:10:19;;;;;;;;;1.00;1.00;;;;;11.26;62.43;98898.94;5076001;28;45323;-58
2024/03/09 08:12:49;;;;;;;;;1.00;1.00;;;;;11.33;62.20;98892.41;5065585;28;45951;-59
2024/03/09 08:15:15;;;;;;;;;1.50;1.50;;;;;11.40;61.81;98888.50;5069272;28;45399;-59
2024/03/09 08:17:44;;;;;;;;;1.00;1.00;;;;;11.44;61.05;98883.91;5067369;28;45414;-56
2024/03/09 08:20:14;;;;;;;;;2.00;0.00;;;;;11.45;61.21;98882.13;5067321;27;45503;-57
2024/03/09 08:22:40;;;;;;;;;2.75;2.00;;;;;11.49;61.37;98886.22;5071835;28;45322;-58
2024/03/09 08:25:11;;;;;;;;;0.25;0.00;;;;;11.51;60.98;98886.97;5066133;28;45643;-56
2024/03/09 08:27:38;;;;;;;;;3.00;1.00;;;;;11.55;61.01;98883.25;5063838;27;45259;-59
2024/03/09 08:30:08;;;;;;;;;2.50;2.00;;;;;11.59;60.82;98885.59;5078677;28;47161;-59
2024/03/09 08:32:37;;;;;;;;;0.00;0.00;;;;;11.64;60.80;98880.06;5071419;28;45981;-60
2024/03/09 08:35:08;;;;;;;;;1.75;1.00;;;;;11.70;60.22;98882.31;5058240;28;45527;-58
2024/03/09 08:37:36;;;;;;;;;3.00;1.50;;;;;11.76;60.31;98879.31;5069968;27;45454;-59
2024/03/09 08:40:05;;;;;;;;;2.75;1.00;;;;;11.81;60.41;98881.66;5073266;27;46372;-63
2024/03/09 08:42:31;;;;;;;;;1.00;1.00;;;;;11.87;60.22;98873.41;5068220;28;45826;-61
2024/03/09 08:44:57;;;;;;;;;2.75;1.75;;;;;11.87;59.71;98875.19;5065278;28;45458;-59
2024/03/09 08:47:23;;;;;;;;;1.50;1.00;;;;;11.89;59.38;98868.06;5061182;27;45518;-59
2024/03/09 08:49:48;;;;;;;;;2.25;1.00;;;;;11.92;60.02;98863.50;5073700;28;45327;-58
2024/03/09 08:52:14;;;;;;;;;2.50;1.00;;;;;11.95;59.44;98862.47;5069677;27;45334;-58
2024/03/09 08:54:41;;;;;;;;;1.00;1.00;;;;;12.00;59.30;98865.63;5075573;28;45272;-58
2024/03/09 08:57:07;;;;;;;;;1.00;0.50;;;;;12.06;58.98;98861.81;5077104;28;45430;-59
2024/03/09 08:59:35;;;;;;;;;2.00;2.00;;;;;12.13;59.28;98856.06;5068093;27;46404;-59
2024/03/09 09:02:01;;;;;;;;;2.00;1.25;;;;;12.22;59.32;98864.31;5044984;28;45878;-59
2024/03/09 09:04:27;;;;;;;;;3.00;2.25;;;;;12.29;59.03;98849.84;5077801;27;45420;-59
2024/03/09 09:06:52;;;;;;;;;1.00;1.00;;;;;12.39;58.80;98852.72;5068517;27;54222;-59
2024/03/09 09:09:24;;;;;;;;;1.00;1.00;;;;;12.47;58.60;98859.16;5078366;27;46330;-59
2024/03/09 09:11:51;;;;;;;;;0.25;0.25;;;;;12.60;58.22;98853.94;5066051;28;45707;-59
2024/03/09 09:14:16;;;;;;;;;1.75;1.00;;;;;12.71;57.89;98851.47;5059472;28;45559;-60
2024/03/09 09:16:41;;;;;;;;;0.00;0.00;;;;;12.83;57.95;98841.06;5064374;28;45402;-57
2024/03/09 09:19:07;;;;;;;;;2.00;1.00;;;;;12.94;57.35;98842.97;5080308;27;56940;-59
2024/03/09 09:21:34;;;;;;;;;1.00;1.00;;;;;13.03;57.45;98837.97;5066776;28;45499;-59
2024/03/09 09:24:00;;;;;;;;;1.00;1.00;;;;;13.12;57.32;98828.63;5061180;28;45421;-59
2024/03/09 09:26:25;;;;;;;;;2.00;1.00;;;;;13.22;56.63;98832.28;5060987;28;45385;-60
2024/03/09 09:28:53;;;;;;;;;2.75;1.00;;;;;13.33;57.11;98830.75;5068730;28;45552;-61
2024/03/09 09:31:19;;;;;;;;;2.75;1.25;;;;;13.44;56.82;98834.31;5075519;27;45745;-62
2024/03/09 09:33:44;;;;;;;;;0.00;0.00;;;;;13.56;56.15;98811.56;5063105;28;68094;-59
2024/03/09 09:36:12;;;;;;;;;2.00;1.00;;;;;13.66;56.04;98811.78;5058989;28;61161;-58
2024/03/09 09:38:38;;;;;;;;;1.00;1.00;;;;;13.78;55.98;98815.34;5065455;27;46162;-57
2024/03/09 09:41:04;;;;;;;;;4.50;1.00;;;;;13.86;55.02;98816.47;5062095;28;45505;-59
2024/03/09 09:43:32;;;;;;;;;3.50;1.00;;;;;13.96;55.50;98814.00;5078572;28;45284;-60
2024/03/09 09:45:59;;;;;;;;;0.00;0.00;;;;;14.03;54.60;98809.16;5066347;28;45405;-58
2024/03/09 09:48:26;;;;;;;;;2.75;1.00;;;;;14.05;54.76;98815.16;5052425;28;45635;-62
2024/03/09 09:50:52;;;;;;;;;2.25;2.25;;;;;14.06;54.53;98816.84;5077719;27;45433;-59
2024/03/09 09:53:20;;;;;;;;;2.00;0.00;;;;;14.01;54.46;98809.25;5061512;28;45347;-59
2024/03/09 09:55:46;;;;;;;;;1.25;1.00;;;;;13.99;54.19;98807.72;5062072;28;45284;-60
2024/03/09 09:58:12;;;;;;;;;5.00;2.00;;;;;13.97;54.09;98813.06;5078705;27;45486;-60
2024/03/09 10:00:38;;;;;;;;;1.00;1.00;;;;;13.95;54.50;98809.72;5060479;27;46370;-58
2024/03/09 10:03:04;;;;;;;;;4.25;1.25;;;;;13.97;54.10;98802.56;5068384;28;45682;-58
2024/03/09 10:05:31;;;;;;;;;2.00;1.00;;;;;14.00;54.78;98802.31;5062998;28;45827;-59
2024/03/09 10:07:59;;;;;;;;;1.50;1.00;;;;;14.03;54.16;98804.72;5065304;28;45573;-59
2024/03/09 10:10:27;;;;;;;;;2.75;1.00;;;;;14.10;54.18;98796.41;5070030;27;45413;-59
2024/03/09 10:13:15;;;;;;;;;2.00;1.50;;;;;14.18;54.45;98802.78;5060334;28;45358;-60
2024/03/09 10:15:43;;;;;;;;;1.50;1.50;;;;;14.30;54.01;98797.56;5073773;28;47076;-59
2024/03/09 10:18:09;;;;;;;;;2.50;1.50;;;;;14.42;54.21;98794.03;5065826;27;46154;-59
2024/03/09 10:20:36;;;;;;;;;0.25;0.25;;;;;14.47;53.77;98785.81;5078274;28;45387;-59
2024/03/09 10:23:04;;;;;;;;;1.75;1.00;;;;;14.48;53.40;98793.56;5070189;28;45438;-60
2024/03/09 10:25:34;;;;;;;;;1.00;1.00;;;;;14.44;53.70;98779.81;5066561;28;45383;-59
2024/03/09 10:28:00;;;;;;;;;1.00;1.00;;;;;14.46;53.25;98782.31;5074381;27;46945;-60
2024/03/09 10:30:26;;;;;;;;;1.25;1.00;;;;;14.47;53.36;98775.28;5078651;28;73372;-60
2024/03/09 10:32:54;;;;;;;;;1.25;1.00;;;;;14.46;52.92;98777.06;5063576;28;45419;-58
2024/03/09 10:35:20;;;;;;;;;2.00;2.00;;;;;14.54;53.25;98787.03;5061908;28;45441;-58
2024/03/09 10:37:50;;;;;;;;;1.00;1.00;;;;;14.58;53.47;98778.81;5063485;27;45470;-59
2024/03/09 10:40:16;;;;;;;;;0.25;0.00;;;;;14.64;53.17;98779.31;5063603;28;46773;-59
2024/03/09 10:42:44;;;;;;;;;2.00;1.75;;;;;14.69;52.93;98759.56;5063565;28;45636;-60
2024/03/09 10:45:16;;;;;;;;;2.50;1.75;;;;;14.80;53.02;98771.91;5069378;28;45540;-58
2024/03/09 10:47:50;;;;;;;;;1.50;0.00;;;;;14.86;52.72;98773.25;5072822;28;45418;-59
2024/03/09 10:50:46;;;;;;;;;1.00;1.00;;;;;14.90;52.75;98770.25;5074796;28;45855;-58
2024/03/09 10:53:35;;;;;;;;;4.25;2.00;;;;;14.94;52.19;98752.44;5076208;28;45287;-58
2024/03/09 10:56:22;;;;;;;;;3.50;1.50;;;;;15.05;52.00;98754.22;5075999;27;45447;-58
2024/03/09 10:58:51;;;;;;;;;1.00;1.00;;;;;15.15;51.97;98752.56;5071519;27;45426;-60
2024/03/09 11:01:19;;;;;;;;;3.00;1.75;;;;;15.27;51.97;98748.97;5072453;28;45381;-60
2024/03/09 11:03:49;;;;;;;;;2.00;1.00;;;;;15.35;51.46;98751.00;5070281;27;45459;-60
2024/03/09 11:06:18;;;;;;;;;2.25;1.75;;;;;15.40;51.55;98748.84;5077940;27;45573;-59
2024/03/09 11:08:45;;;;;;;;;2.00;1.50;;;;;15.46;51.31;98745.75;5070647;27;47147;-60
2024/03/09 11:11:13;;;;;;;;;1.75;1.75;;;;;15.50;51.07;98748.97;5061969;28;45404;-60
2024/03/09 11:13:39;;;;;;;;;0.75;0.75;;;;;15.48;51.16;98745.63;5069433;28;45282;-59
2024/03/09 11:16:09;;;;;;;;;0.75;0.75;;;;;15.42;50.66;98746.09;5070690;28;45245;-59
2024/03/09 11:18:39;;;;;;;;;2.00;1.00;;;;;15.32;50.54;98740.72;5060275;27;45524;-60
2024/03/09 11:21:07;;;;;;;;;1.00;1.00;;;;;15.25;50.83;98736.88;5071500;28;45368;-59
2024/03/09 11:23:33;;;;;;;;;1.00;0.00;;;;;15.22;50.95;98730.06;5068923;28;45430;-60
2024/03/09 11:25:59;;;;;;;;;3.00;2.00;;;;;15.28;50.86;98737.50;5058867;28;45449;-60
2024/03/09 11:28:28;;;;;;;;;2.00;2.00;;;;;15.46;51.16;98732.56;5074006;27;46355;-60
2024/03/09 11:31:19;;;;;;;;;3.00;1.75;;;;;15.70;50.68;98732.38;5072277;28;45637;-60
2024/03/09 11:33:45;;;;;;;;;4.00;4.00;;;;;15.87;50.61;98717.03;5068363;28;45394;-59
2024/03/09 11:36:45;;;;;;;;;7.50;4.50;;;;;15.97;50.04;98720.59;5062062;28;45429;-59
2024/03/09 11:39:14;;;;;;;;;4.00;2.50;;;;;16.07;49.75;98720.69;5071439;27;45626;-60